sensor_id;sensor_type;location;lat;lon;timestamp;temperature;humidity
10300;DHT22;5195;48.562;9.192;2022-07-23T00:02:04;26.30;51.30
10300;DHT22;5195;48.562;9.192;2022-07-23T00:04:30;26.30;52.10
10300;DHT22;5195;48.562;9.192;2022-07-23T00:06:55;26.20;52.10
10300;DHT22;5195;48.562;9.192;2022-07-23T00:09:21;26.30;52.80
10300;DHT22;5195;48.562;9.192;2022-07-23T00:11:46;26.10;52.30
10300;DHT22;5195;48.562;9.192;2022-07-23T00:14:15;26.20;51.30
10300;DHT22;5195;48.562;9.192;2022-07-23T00:16:41;26.40;51.20
10300;DHT22;5195;48.562;9.192;2022-07-23T00:19:08;26.30;50.90
10300;DHT22;5195;48.562;9.192;2022-07-23T00:21:34;26.30;51.20
10300;DHT22;5195;48.562;9.192;2022-07-23T00:23:59;26.50;51.20
10300;DHT22;5195;48.562;9.192;2022-07-23T00:26:25;26.30;51.30
10300;DHT22;5195;48.562;9.192;2022-07-23T00:28:50;26.30;51.60
10300;DHT22;5195;48.562;9.192;2022-07-23T00:31:16;26.00;51.70
10300;DHT22;5195;48.562;9.192;2022-07-23T00:33:42;25.70;52.30
10300;DHT22;5195;48.562;9.192;2022-07-23T00:36:08;25.30;53.20
10300;DHT22;5195;48.562;9.192;2022-07-23T00:38:34;25.40;53.00
10300;DHT22;5195;48.562;9.192;2022-07-23T00:41:00;25.50;53.10
10300;DHT22;5195;48.562;9.192;2022-07-23T00:43:25;25.80;52.20
10300;DHT22;5195;48.562;9.192;2022-07-23T00:45:51;26.00;51.20
10300;DHT22;5195;48.562;9.192;2022-07-23T00:48:16;25.80;51.30
10300;DHT22;5195;48.562;9.192;2022-07-23T00:50:42;25.80;50.60
10300;DHT22;5195;48.562;9.192;2022-07-23T00:53:08;25.70;50.30
10300;DHT22;5195;48.562;9.192;2022-07-23T00:55:34;25.70;50.20
10300;DHT22;5195;48.562;9.192;2022-07-23T00:57:59;25.90;49.40
10300;DHT22;5195;48.562;9.192;2022-07-23T01:00:25;26.10;49.50
10300;DHT22;5195;48.562;9.192;2022-07-23T01:02:51;25.90;49.70
10300;DHT22;5195;48.562;9.192;2022-07-23T01:05:16;25.60;50.80
10300;DHT22;5195;48.562;9.192;2022-07-23T01:07:42;25.40;51.30
10300;DHT22;5195;48.562;9.192;2022-07-23T01:10:07;25.50;52.50
10300;DHT22;5195;48.562;9.192;2022-07-23T01:12:33;25.80;52.30
10300;DHT22;5195;48.562;9.192;2022-07-23T01:14:59;25.80;51.70
10300;DHT22;5195;48.562;9.192;2022-07-23T01:17:25;25.80;51.80
10300;DHT22;5195;48.562;9.192;2022-07-23T01:19:50;25.50;52.50
10300;DHT22;5195;48.562;9.192;2022-07-23T01:22:17;25.30;53.00
10300;DHT22;5195;48.562;9.192;2022-07-23T01:24:43;25.40;53.40
10300;DHT22;5195;48.562;9.192;2022-07-23T01:27:09;25.40;53.30
10300;DHT22;5195;48.562;9.192;2022-07-23T01:29:35;25.10;53.80
10300;DHT22;5195;48.562;9.192;2022-07-23T01:32:01;25.00;53.80
10300;DHT22;5195;48.562;9.192;2022-07-23T01:34:26;25.30;53.20
10300;DHT22;5195;48.562;9.192;2022-07-23T01:36:52;25.30;52.70
10300;DHT22;5195;48.562;9.192;2022-07-23T01:39:17;25.50;52.10
10300;DHT22;5195;48.562;9.192;2022-07-23T01:41:43;25.50;52.10
10300;DHT22;5195;48.562;9.192;2022-07-23T01:44:08;25.70;51.50
10300;DHT22;5195;48.562;9.192;2022-07-23T01:46:34;25.60;51.40
10300;DHT22;5195;48.562;9.192;2022-07-23T01:49:00;25.40;51.70
10300;DHT22;5195;48.562;9.192;2022-07-23T01:51:25;25.20;52.20
10300;DHT22;5195;48.562;9.192;2022-07-23T01:53:51;25.00;52.40
10300;DHT22;5195;48.562;9.192;2022-07-23T01:56:16;24.90;52.80
10300;DHT22;5195;48.562;9.192;2022-07-23T01:58:42;25.10;53.00
10300;DHT22;5195;48.562;9.192;2022-07-23T02:01:07;25.00;52.80
10300;DHT22;5195;48.562;9.192;2022-07-23T02:03:33;25.20;52.80
10300;DHT22;5195;48.562;9.192;2022-07-23T02:05:58;25.00;52.60
10300;DHT22;5195;48.562;9.192;2022-07-23T02:08:24;24.80;53.10
10300;DHT22;5195;48.562;9.192;2022-07-23T02:10:50;24.70;53.80
10300;DHT22;5195;48.562;9.192;2022-07-23T02:13:16;24.70;53.70
10300;DHT22;5195;48.562;9.192;2022-07-23T02:15:41;25.10;53.40
10300;DHT22;5195;48.562;9.192;2022-07-23T02:18:07;25.40;53.00
10300;DHT22;5195;48.562;9.192;2022-07-23T02:20:33;25.20;52.70
10300;DHT22;5195;48.562;9.192;2022-07-23T02:22:59;24.60;52.10
10300;DHT22;5195;48.562;9.192;2022-07-23T02:25:24;24.60;52.10
10300;DHT22;5195;48.562;9.192;2022-07-23T02:27:50;24.70;49.90
10300;DHT22;5195;48.562;9.192;2022-07-23T02:30:16;25.00;48.50
10300;DHT22;5195;48.562;9.192;2022-07-23T02:32:41;24.90;48.90
10300;DHT22;5195;48.562;9.192;2022-07-23T02:35:07;25.00;48.70
10300;DHT22;5195;48.562;9.192;2022-07-23T02:37:32;25.20;48.50
10300;DHT22;5195;48.562;9.192;2022-07-23T02:39:58;25.50;48.10
10300;DHT22;5195;48.562;9.192;2022-07-23T02:42:24;25.30;48.10
10300;DHT22;5195;48.562;9.192;2022-07-23T02:44:50;25.20;48.40
10300;DHT22;5195;48.562;9.192;2022-07-23T02:47:16;25.20;48.40
10300;DHT22;5195;48.562;9.192;2022-07-23T02:49:42;24.80;49.60
10300;DHT22;5195;48.562;9.192;2022-07-23T02:52:07;24.80;49.60
10300;DHT22;5195;48.562;9.192;2022-07-23T02:54:33;25.00;48.70
10300;DHT22;5195;48.562;9.192;2022-07-23T02:56:59;25.30;49.00
10300;DHT22;5195;48.562;9.192;2022-07-23T02:59:25;25.30;49.00
10300;DHT22;5195;48.562;9.192;2022-07-23T03:01:50;25.00;49.40
10300;DHT22;5195;48.562;9.192;2022-07-23T03:04:16;25.20;49.40
10300;DHT22;5195;48.562;9.192;2022-07-23T03:06:41;25.50;49.00
10300;DHT22;5195;48.562;9.192;2022-07-23T03:09:07;25.80;48.30
10300;DHT22;5195;48.562;9.192;2022-07-23T03:11:34;26.00;48.50
10300;DHT22;5195;48.562;9.192;2022-07-23T03:14:00;26.10;47.60
10300;DHT22;5195;48.562;9.192;2022-07-23T03:16:26;26.10;46.90
10300;DHT22;5195;48.562;9.192;2022-07-23T03:18:51;26.20;46.80
10300;DHT22;5195;48.562;9.192;2022-07-23T03:21:17;25.90;47.60
10300;DHT22;5195;48.562;9.192;2022-07-23T03:23:42;25.80;48.70
10300;DHT22;5195;48.562;9.192;2022-07-23T03:26:08;26.00;47.50
10300;DHT22;5195;48.562;9.192;2022-07-23T03:28:33;25.80;48.00
10300;DHT22;5195;48.562;9.192;2022-07-23T03:30:59;25.80;48.30
10300;DHT22;5195;48.562;9.192;2022-07-23T03:33:24;26.00;48.00
10300;DHT22;5195;48.562;9.192;2022-07-23T03:35:50;25.80;48.40
10300;DHT22;5195;48.562;9.192;2022-07-23T03:38:16;25.80;48.40
10300;DHT22;5195;48.562;9.192;2022-07-23T03:40:41;25.50;48.60
10300;DHT22;5195;48.562;9.192;2022-07-23T03:43:07;25.50;48.80
10300;DHT22;5195;48.562;9.192;2022-07-23T03:45:34;25.30;49.10
10300;DHT22;5195;48.562;9.192;2022-07-23T03:48:00;25.00;49.50
10300;DHT22;5195;48.562;9.192;2022-07-23T03:50:25;25.00;49.50
10300;DHT22;5195;48.562;9.192;2022-07-23T03:52:51;24.70;49.80
10300;DHT22;5195;48.562;9.192;2022-07-23T03:55:16;24.80;49.80
10300;DHT22;5195;48.562;9.192;2022-07-23T03:57:42;24.70;50.10
10300;DHT22;5195;48.562;9.192;2022-07-23T04:00:08;24.50;50.80
10300;DHT22;5195;48.562;9.192;2022-07-23T04:02:33;24.30;50.60
10300;DHT22;5195;48.562;9.192;2022-07-23T04:04:59;24.20;51.00
10300;DHT22;5195;48.562;9.192;2022-07-23T04:07:26;24.30;52.00
10300;DHT22;5195;48.562;9.192;2022-07-23T04:09:53;24.30;52.00
10300;DHT22;5195;48.562;9.192;2022-07-23T04:12:19;24.80;51.30
10300;DHT22;5195;48.562;9.192;2022-07-23T04:14:44;25.10;50.70
10300;DHT22;5195;48.562;9.192;2022-07-23T04:17:10;25.10;50.60
10300;DHT22;5195;48.562;9.192;2022-07-23T04:19:36;24.80;50.90
10300;DHT22;5195;48.562;9.192;2022-07-23T04:22:01;25.00;51.10
10300;DHT22;5195;48.562;9.192;2022-07-23T04:24:27;25.00;51.10
10300;DHT22;5195;48.562;9.192;2022-07-23T04:26:52;25.10;50.90
10300;DHT22;5195;48.562;9.192;2022-07-23T04:29:18;25.40;50.70
10300;DHT22;5195;48.562;9.192;2022-07-23T04:31:43;25.60;50.10
10300;DHT22;5195;48.562;9.192;2022-07-23T04:34:09;25.40;50.10
10300;DHT22;5195;48.562;9.192;2022-07-23T04:36:35;25.10;50.50
10300;DHT22;5195;48.562;9.192;2022-07-23T04:39:00;25.20;50.70
10300;DHT22;5195;48.562;9.192;2022-07-23T04:41:27;25.00;50.80
10300;DHT22;5195;48.562;9.192;2022-07-23T04:43:54;25.10;50.90
10300;DHT22;5195;48.562;9.192;2022-07-23T04:46:21;25.40;51.00
10300;DHT22;5195;48.562;9.192;2022-07-23T04:48:47;25.30;50.90
10300;DHT22;5195;48.562;9.192;2022-07-23T04:51:14;25.50;50.50
10300;DHT22;5195;48.562;9.192;2022-07-23T04:53:39;25.70;49.80
10300;DHT22;5195;48.562;9.192;2022-07-23T04:56:05;26.00;49.30
10300;DHT22;5195;48.562;9.192;2022-07-23T04:58:31;26.20;49.30
10300;DHT22;5195;48.562;9.192;2022-07-23T05:00:56;26.30;49.10
10300;DHT22;5195;48.562;9.192;2022-07-23T05:03:22;26.50;48.90
10300;DHT22;5195;48.562;9.192;2022-07-23T05:05:49;26.30;49.00
10300;DHT22;5195;48.562;9.192;2022-07-23T05:08:15;26.40;49.00
10300;DHT22;5195;48.562;9.192;2022-07-23T05:10:40;26.20;49.10
10300;DHT22;5195;48.562;9.192;2022-07-23T05:13:06;26.30;50.40
10300;DHT22;5195;48.562;9.192;2022-07-23T05:15:31;26.50;49.40
10300;DHT22;5195;48.562;9.192;2022-07-23T05:17:57;26.60;49.20
10300;DHT22;5195;48.562;9.192;2022-07-23T05:20:22;26.40;49.50
10300;DHT22;5195;48.562;9.192;2022-07-23T05:22:48;26.40;49.80
10300;DHT22;5195;48.562;9.192;2022-07-23T05:25:14;26.50;49.60
10300;DHT22;5195;48.562;9.192;2022-07-23T05:27:39;26.20;49.50
10300;DHT22;5195;48.562;9.192;2022-07-23T05:30:05;25.90;50.00
10300;DHT22;5195;48.562;9.192;2022-07-23T05:32:31;26.00;49.70
10300;DHT22;5195;48.562;9.192;2022-07-23T05:34:56;25.90;49.80
10300;DHT22;5195;48.562;9.192;2022-07-23T05:37:22;25.60;50.20
10300;DHT22;5195;48.562;9.192;2022-07-23T05:39:47;25.80;50.60
10300;DHT22;5195;48.562;9.192;2022-07-23T05:42:13;26.00;50.30
10300;DHT22;5195;48.562;9.192;2022-07-23T05:44:38;26.00;50.30
10300;DHT22;5195;48.562;9.192;2022-07-23T05:47:04;26.10;49.80
10300;DHT22;5195;48.562;9.192;2022-07-23T05:49:29;26.00;49.90
10300;DHT22;5195;48.562;9.192;2022-07-23T05:51:55;26.00;50.40
10300;DHT22;5195;48.562;9.192;2022-07-23T05:54:21;26.30;50.20
10300;DHT22;5195;48.562;9.192;2022-07-23T05:56:46;26.50;49.60
10300;DHT22;5195;48.562;9.192;2022-07-23T05:59:13;26.40;49.70
10300;DHT22;5195;48.562;9.192;2022-07-23T06:01:39;26.10;50.00
10300;DHT22;5195;48.562;9.192;2022-07-23T06:04:04;26.30;49.90
10300;DHT22;5195;48.562;9.192;2022-07-23T06:06:30;26.30;49.90
10300;DHT22;5195;48.562;9.192;2022-07-23T06:08:55;26.10;50.10
10300;DHT22;5195;48.562;9.192;2022-07-23T06:11:21;26.40;49.80
10300;DHT22;5195;48.562;9.192;2022-07-23T06:13:46;26.40;49.70
10300;DHT22;5195;48.562;9.192;2022-07-23T06:16:12;26.70;49.10
10300;DHT22;5195;48.562;9.192;2022-07-23T06:18:37;26.80;49.20
10300;DHT22;5195;48.562;9.192;2022-07-23T06:21:04;27.20;48.30
10300;DHT22;5195;48.562;9.192;2022-07-23T06:23:29;27.20;48.20
10300;DHT22;5195;48.562;9.192;2022-07-23T06:25:55;27.20;48.40
10300;DHT22;5195;48.562;9.192;2022-07-23T06:28:21;27.20;48.30
10300;DHT22;5195;48.562;9.192;2022-07-23T06:30:47;27.10;48.20
10300;DHT22;5195;48.562;9.192;2022-07-23T06:33:12;27.40;48.50
10300;DHT22;5195;48.562;9.192;2022-07-23T06:35:38;28.20;47.40
10300;DHT22;5195;48.562;9.192;2022-07-23T06:38:04;28.70;46.90
10300;DHT22;5195;48.562;9.192;2022-07-23T06:40:29;29.00;46.50
10300;DHT22;5195;48.562;9.192;2022-07-23T06:42:55;29.30;46.20
10300;DHT22;5195;48.562;9.192;2022-07-23T06:45:21;29.80;44.60
10300;DHT22;5195;48.562;9.192;2022-07-23T06:47:51;29.80;44.60
10300;DHT22;5195;48.562;9.192;2022-07-23T06:50:17;30.00;44.20
10300;DHT22;5195;48.562;9.192;2022-07-23T06:52:42;30.60;42.20
10300;DHT22;5195;48.562;9.192;2022-07-23T06:55:08;31.30;41.30
10300;DHT22;5195;48.562;9.192;2022-07-23T06:57:33;32.00;40.20
10300;DHT22;5195;48.562;9.192;2022-07-23T06:59:59;32.50;39.50
10300;DHT22;5195;48.562;9.192;2022-07-23T07:02:25;32.80;38.90
10300;DHT22;5195;48.562;9.192;2022-07-23T07:04:50;33.20;38.30
10300;DHT22;5195;48.562;9.192;2022-07-23T07:07:17;33.10;38.90
10300;DHT22;5195;48.562;9.192;2022-07-23T07:09:45;33.30;38.90
10300;DHT22;5195;48.562;9.192;2022-07-23T07:12:11;33.00;39.20
10300;DHT22;5195;48.562;9.192;2022-07-23T07:14:37;33.00;39.10
10300;DHT22;5195;48.562;9.192;2022-07-23T07:17:02;32.60;39.70
10300;DHT22;5195;48.562;9.192;2022-07-23T07:19:28;32.40;39.20
10300;DHT22;5195;48.562;9.192;2022-07-23T07:21:54;32.00;39.60
10300;DHT22;5195;48.562;9.192;2022-07-23T07:24:21;31.50;39.90
10300;DHT22;5195;48.562;9.192;2022-07-23T07:26:47;31.40;40.00
10300;DHT22;5195;48.562;9.192;2022-07-23T07:29:13;31.40;40.00
10300;DHT22;5195;48.562;9.192;2022-07-23T07:31:40;30.90;40.30
10300;DHT22;5195;48.562;9.192;2022-07-23T07:34:05;30.40;41.10
10300;DHT22;5195;48.562;9.192;2022-07-23T07:36:32;30.50;41.60
10300;DHT22;5195;48.562;9.192;2022-07-23T07:38:58;30.40;41.70
10300;DHT22;5195;48.562;9.192;2022-07-23T07:41:24;30.20;42.20
10300;DHT22;5195;48.562;9.192;2022-07-23T07:43:50;30.00;42.70
10300;DHT22;5195;48.562;9.192;2022-07-23T07:46:16;30.20;42.20
10300;DHT22;5195;48.562;9.192;2022-07-23T07:48:42;30.10;42.10
10300;DHT22;5195;48.562;9.192;2022-07-23T07:51:07;30.20;41.80
10300;DHT22;5195;48.562;9.192;2022-07-23T07:53:33;30.40;41.30
10300;DHT22;5195;48.562;9.192;2022-07-23T07:55:59;29.80;41.80
10300;DHT22;5195;48.562;9.192;2022-07-23T07:58:26;29.80;41.80
10300;DHT22;5195;48.562;9.192;2022-07-23T08:00:52;29.50;42.50
10300;DHT22;5195;48.562;9.192;2022-07-23T08:03:17;29.40;42.80
10300;DHT22;5195;48.562;9.192;2022-07-23T08:05:43;29.70;42.70
10300;DHT22;5195;48.562;9.192;2022-07-23T08:08:10;30.20;42.70
10300;DHT22;5195;48.562;9.192;2022-07-23T08:10:36;30.70;41.20
10300;DHT22;5195;48.562;9.192;2022-07-23T08:13:01;30.80;40.90
10300;DHT22;5195;48.562;9.192;2022-07-23T08:15:27;30.70;41.40
10300;DHT22;5195;48.562;9.192;2022-07-23T08:17:52;30.60;41.40
10300;DHT22;5195;48.562;9.192;2022-07-23T08:20:18;30.90;40.30
10300;DHT22;5195;48.562;9.192;2022-07-23T08:22:58;31.00;40.40
10300;DHT22;5195;48.562;9.192;2022-07-23T08:25:37;31.00;40.40
10300;DHT22;5195;48.562;9.192;2022-07-23T08:28:02;31.40;39.40
10300;DHT22;5195;48.562;9.192;2022-07-23T08:30:27;31.80;38.90
10300;DHT22;5195;48.562;9.192;2022-07-23T08:33:00;32.30;38.40
10300;DHT22;5195;48.562;9.192;2022-07-23T08:37:55;32.70;37.30
10300;DHT22;5195;48.562;9.192;2022-07-23T08:40:20;32.90;36.90
10300;DHT22;5195;48.562;9.192;2022-07-23T08:42:48;33.10;35.20
10300;DHT22;5195;48.562;9.192;2022-07-23T08:45:14;32.90;36.10
10300;DHT22;5195;48.562;9.192;2022-07-23T08:47:39;32.70;36.50
10300;DHT22;5195;48.562;9.192;2022-07-23T08:50:06;32.80;36.00
10300;DHT22;5195;48.562;9.192;2022-07-23T08:52:31;32.80;35.90
10300;DHT22;5195;48.562;9.192;2022-07-23T08:54:58;32.60;36.40
10300;DHT22;5195;48.562;9.192;2022-07-23T08:57:23;32.50;36.40
10300;DHT22;5195;48.562;9.192;2022-07-23T08:59:49;32.70;36.60
10300;DHT22;5195;48.562;9.192;2022-07-23T09:02:15;32.80;37.40
10300;DHT22;5195;48.562;9.192;2022-07-23T09:04:41;32.50;37.60
10300;DHT22;5195;48.562;9.192;2022-07-23T09:07:06;32.50;37.60
10300;DHT22;5195;48.562;9.192;2022-07-23T09:09:32;32.60;36.40
10300;DHT22;5195;48.562;9.192;2022-07-23T09:12:05;32.50;36.40
10300;DHT22;5195;48.562;9.192;2022-07-23T09:14:40;32.20;36.40
10300;DHT22;5195;48.562;9.192;2022-07-23T09:17:10;32.20;35.90
10300;DHT22;5195;48.562;9.192;2022-07-23T09:19:35;32.20;36.20
10300;DHT22;5195;48.562;9.192;2022-07-23T09:25:15;32.00;36.70
10300;DHT22;5195;48.562;9.192;2022-07-23T09:27:55;32.00;37.10
10300;DHT22;5195;48.562;9.192;2022-07-23T09:30:27;32.10;36.60
10300;DHT22;5195;48.562;9.192;2022-07-23T09:33:10;32.30;37.50
10300;DHT22;5195;48.562;9.192;2022-07-23T09:35:55;32.40;36.60
10300;DHT22;5195;48.562;9.192;2022-07-23T09:38:20;32.60;36.20
10300;DHT22;5195;48.562;9.192;2022-07-23T09:40:46;32.80;36.00
10300;DHT22;5195;48.562;9.192;2022-07-23T09:43:11;32.60;36.10
10300;DHT22;5195;48.562;9.192;2022-07-23T09:45:36;32.30;36.20
10300;DHT22;5195;48.562;9.192;2022-07-23T09:48:16;32.40;36.20
10300;DHT22;5195;48.562;9.192;2022-07-23T09:50:41;32.30;36.00
10300;DHT22;5195;48.562;9.192;2022-07-23T09:53:06;32.10;36.40
10300;DHT22;5195;48.562;9.192;2022-07-23T09:55:42;31.90;36.40
10300;DHT22;5195;48.562;9.192;2022-07-23T09:58:17;31.80;36.60
10300;DHT22;5195;48.562;9.192;2022-07-23T10:00:53;31.90;36.80
10300;DHT22;5195;48.562;9.192;2022-07-23T10:03:28;31.90;36.80
10300;DHT22;5195;48.562;9.192;2022-07-23T10:06:04;32.30;36.40
10300;DHT22;5195;48.562;9.192;2022-07-23T10:08:40;32.50;36.20
10300;DHT22;5195;48.562;9.192;2022-07-23T10:11:16;32.40;36.30
10300;DHT22;5195;48.562;9.192;2022-07-23T10:13:53;32.40;36.40
10300;DHT22;5195;48.562;9.192;2022-07-23T10:16:31;32.40;36.40
10300;DHT22;5195;48.562;9.192;2022-07-23T10:19:06;32.50;36.50
10300;DHT22;5195;48.562;9.192;2022-07-23T10:21:50;32.50;36.70
10300;DHT22;5195;48.562;9.192;2022-07-23T10:24:50;32.60;36.20
10300;DHT22;5195;48.562;9.192;2022-07-23T10:27:47;32.70;36.30
10300;DHT22;5195;48.562;9.192;2022-07-23T10:33:38;32.40;36.10
10300;DHT22;5195;48.562;9.192;2022-07-23T10:36:34;32.30;36.70
10300;DHT22;5195;48.562;9.192;2022-07-23T10:39:13;32.30;36.70
10300;DHT22;5195;48.562;9.192;2022-07-23T10:41:46;32.80;36.30
10300;DHT22;5195;48.562;9.192;2022-07-23T10:44:22;32.80;36.20
10300;DHT22;5195;48.562;9.192;2022-07-23T10:47:01;33.00;35.90
10300;DHT22;5195;48.562;9.192;2022-07-23T10:49:46;33.00;36.00
10300;DHT22;5195;48.562;9.192;2022-07-23T10:52:26;33.40;35.40
10300;DHT22;5195;48.562;9.192;2022-07-23T10:57:50;33.70;35.20
10300;DHT22;5195;48.562;9.192;2022-07-23T11:00:27;34.00;34.90
10300;DHT22;5195;48.562;9.192;2022-07-23T11:03:03;33.80;34.80
10300;DHT22;5195;48.562;9.192;2022-07-23T11:05:42;33.80;34.80
10300;DHT22;5195;48.562;9.192;2022-07-23T11:08:20;34.00;34.30
10300;DHT22;5195;48.562;9.192;2022-07-23T11:11:07;33.80;34.30
10300;DHT22;5195;48.562;9.192;2022-07-23T11:13:33;33.40;34.60
10300;DHT22;5195;48.562;9.192;2022-07-23T11:16:15;33.60;35.10
10300;DHT22;5195;48.562;9.192;2022-07-23T11:18:53;33.90;34.00
10300;DHT22;5195;48.562;9.192;2022-07-23T11:24:15;34.40;33.60
10300;DHT22;5195;48.562;9.192;2022-07-23T11:26:50;34.10;33.90
10300;DHT22;5195;48.562;9.192;2022-07-23T11:32:27;33.50;34.70
10300;DHT22;5195;48.562;9.192;2022-07-23T11:34:57;33.40;35.10
10300;DHT22;5195;48.562;9.192;2022-07-23T11:37:38;33.50;34.50
10300;DHT22;5195;48.562;9.192;2022-07-23T11:40:15;33.70;33.90
10300;DHT22;5195;48.562;9.192;2022-07-23T11:42:51;33.70;33.90
10300;DHT22;5195;48.562;9.192;2022-07-23T11:45:31;33.60;34.80
10300;DHT22;5195;48.562;9.192;2022-07-23T11:48:00;33.40;34.30
10300;DHT22;5195;48.562;9.192;2022-07-23T11:50:36;33.60;34.30
10300;DHT22;5195;48.562;9.192;2022-07-23T11:53:12;34.50;33.10
10300;DHT22;5195;48.562;9.192;2022-07-23T11:55:47;34.40;33.00
10300;DHT22;5195;48.562;9.192;2022-07-23T11:58:23;34.60;33.00
10300;DHT22;5195;48.562;9.192;2022-07-23T12:00:59;34.90;30.70
10300;DHT22;5195;48.562;9.192;2022-07-23T12:03:37;34.80;30.60
10300;DHT22;5195;48.562;9.192;2022-07-23T12:06:13;34.90;30.70
10300;DHT22;5195;48.562;9.192;2022-07-23T12:08:48;34.80;30.60
10300;DHT22;5195;48.562;9.192;2022-07-23T12:11:24;34.80;29.90
10300;DHT22;5195;48.562;9.192;2022-07-23T12:14:00;34.60;30.20
10300;DHT22;5195;48.562;9.192;2022-07-23T12:16:36;34.60;30.10
10300;DHT22;5195;48.562;9.192;2022-07-23T12:19:11;34.70;30.40
10300;DHT22;5195;48.562;9.192;2022-07-23T12:21:47;34.70;30.00
10300;DHT22;5195;48.562;9.192;2022-07-23T12:24:23;34.60;29.70
10300;DHT22;5195;48.562;9.192;2022-07-23T12:27:11;34.10;30.20
10300;DHT22;5195;48.562;9.192;2022-07-23T12:29:47;33.90;31.50
10300;DHT22;5195;48.562;9.192;2022-07-23T12:32:24;33.90;31.40
10300;DHT22;5195;48.562;9.192;2022-07-23T12:35:06;33.70;31.20
10300;DHT22;5195;48.562;9.192;2022-07-23T12:37:41;33.30;31.80
10300;DHT22;5195;48.562;9.192;2022-07-23T12:40:37;33.10;32.60
10300;DHT22;5195;48.562;9.192;2022-07-23T12:43:18;32.80;33.40
10300;DHT22;5195;48.562;9.192;2022-07-23T12:45:48;32.70;33.60
10300;DHT22;5195;48.562;9.192;2022-07-23T12:48:33;33.00;34.20
10300;DHT22;5195;48.562;9.192;2022-07-23T12:51:19;33.00;33.00
10300;DHT22;5195;48.562;9.192;2022-07-23T12:53:56;32.70;33.10
10300;DHT22;5195;48.562;9.192;2022-07-23T12:56:31;32.80;32.80
10300;DHT22;5195;48.562;9.192;2022-07-23T12:59:10;32.70;33.00
10300;DHT22;5195;48.562;9.192;2022-07-23T13:01:54;32.60;33.20
10300;DHT22;5195;48.562;9.192;2022-07-23T13:04:29;32.40;33.20
10300;DHT22;5195;48.562;9.192;2022-07-23T13:07:05;32.30;33.30
10300;DHT22;5195;48.562;9.192;2022-07-23T13:09:40;32.50;31.70
10300;DHT22;5195;48.562;9.192;2022-07-23T13:12:16;32.80;31.60
10300;DHT22;5195;48.562;9.192;2022-07-23T13:14:51;33.20;31.40
10300;DHT22;5195;48.562;9.192;2022-07-23T13:17:27;33.30;31.40
10300;DHT22;5195;48.562;9.192;2022-07-23T13:20:03;33.50;31.10
10300;DHT22;5195;48.562;9.192;2022-07-23T13:22:41;33.60;31.00
10300;DHT22;5195;48.562;9.192;2022-07-23T13:25:17;33.20;31.40
10300;DHT22;5195;48.562;9.192;2022-07-23T13:27:54;32.80;31.90
10300;DHT22;5195;48.562;9.192;2022-07-23T13:30:30;32.50;32.30
10300;DHT22;5195;48.562;9.192;2022-07-23T13:33:06;32.10;32.50
10300;DHT22;5195;48.562;9.192;2022-07-23T13:35:42;31.90;33.10
10300;DHT22;5195;48.562;9.192;2022-07-23T13:38:18;31.90;33.50
10300;DHT22;5195;48.562;9.192;2022-07-23T13:40:54;32.30;32.70
10300;DHT22;5195;48.562;9.192;2022-07-23T13:43:31;32.30;32.70
10300;DHT22;5195;48.562;9.192;2022-07-23T13:46:06;32.70;32.20
10300;DHT22;5195;48.562;9.192;2022-07-23T13:48:42;32.90;32.70
10300;DHT22;5195;48.562;9.192;2022-07-23T13:51:17;33.10;32.40
10300;DHT22;5195;48.562;9.192;2022-07-23T13:53:53;32.90;32.10
10300;DHT22;5195;48.562;9.192;2022-07-23T13:56:34;32.30;32.70
10300;DHT22;5195;48.562;9.192;2022-07-23T13:59:09;32.20;32.90
10300;DHT22;5195;48.562;9.192;2022-07-23T14:01:45;32.30;34.00
10300;DHT22;5195;48.562;9.192;2022-07-23T14:04:21;31.90;33.80
10300;DHT22;5195;48.562;9.192;2022-07-23T14:06:56;31.80;35.00
10300;DHT22;5195;48.562;9.192;2022-07-23T14:09:32;31.90;35.80
10300;DHT22;5195;48.562;9.192;2022-07-23T14:12:07;31.70;35.90
10300;DHT22;5195;48.562;9.192;2022-07-23T14:14:44;31.60;34.80
10300;DHT22;5195;48.562;9.192;2022-07-23T14:17:20;31.60;34.80
10300;DHT22;5195;48.562;9.192;2022-07-23T14:19:57;31.50;34.90
10300;DHT22;5195;48.562;9.192;2022-07-23T14:22:32;31.50;34.00
10300;DHT22;5195;48.562;9.192;2022-07-23T14:25:08;31.80;33.90
10300;DHT22;5195;48.562;9.192;2022-07-23T14:27:44;32.20;34.00
10300;DHT22;5195;48.562;9.192;2022-07-23T14:30:20;32.60;33.70
10300;DHT22;5195;48.562;9.192;2022-07-23T14:36:31;32.70;32.80
10300;DHT22;5195;48.562;9.192;2022-07-23T14:39:07;32.50;33.20
10300;DHT22;5195;48.562;9.192;2022-07-23T14:41:45;32.40;34.00
10300;DHT22;5195;48.562;9.192;2022-07-23T14:44:20;32.50;32.20
10300;DHT22;5195;48.562;9.192;2022-07-23T14:46:56;32.50;32.60
10300;DHT22;5195;48.562;9.192;2022-07-23T14:49:32;32.60;32.60
10300;DHT22;5195;48.562;9.192;2022-07-23T14:52:07;32.60;32.50
10300;DHT22;5195;48.562;9.192;2022-07-23T14:54:44;32.50;33.20
10300;DHT22;5195;48.562;9.192;2022-07-23T14:57:21;32.70;33.00
10300;DHT22;5195;48.562;9.192;2022-07-23T14:59:56;32.80;32.70
10300;DHT22;5195;48.562;9.192;2022-07-23T15:02:32;32.60;32.70
10300;DHT22;5195;48.562;9.192;2022-07-23T15:05:08;32.50;32.40
10300;DHT22;5195;48.562;9.192;2022-07-23T15:07:43;32.30;32.50
10300;DHT22;5195;48.562;9.192;2022-07-23T15:10:19;32.50;31.60
10300;DHT22;5195;48.562;9.192;2022-07-23T15:12:54;32.80;31.30
10300;DHT22;5195;48.562;9.192;2022-07-23T15:15:31;32.80;32.30
10300;DHT22;5195;48.562;9.192;2022-07-23T15:18:06;32.80;32.30
10300;DHT22;5195;48.562;9.192;2022-07-23T15:20:42;32.80;32.10
10300;DHT22;5195;48.562;9.192;2022-07-23T15:23:17;32.50;32.10
10300;DHT22;5195;48.562;9.192;2022-07-23T15:25:54;32.40;32.50
10300;DHT22;5195;48.562;9.192;2022-07-23T15:28:28;32.30;32.40
10300;DHT22;5195;48.562;9.192;2022-07-23T15:31:04;32.40;32.30
10300;DHT22;5195;48.562;9.192;2022-07-23T15:33:40;32.40;31.90
10300;DHT22;5195;48.562;9.192;2022-07-23T15:36:17;32.30;31.90
10300;DHT22;5195;48.562;9.192;2022-07-23T15:38:52;32.30;34.00
10300;DHT22;5195;48.562;9.192;2022-07-23T15:41:27;32.30;33.10
10300;DHT22;5195;48.562;9.192;2022-07-23T15:44:03;32.30;33.10
10300;DHT22;5195;48.562;9.192;2022-07-23T15:46:38;32.50;32.70
10300;DHT22;5195;48.562;9.192;2022-07-23T15:49:14;32.40;32.50
10300;DHT22;5195;48.562;9.192;2022-07-23T15:51:50;32.50;31.70
10300;DHT22;5195;48.562;9.192;2022-07-23T15:54:25;32.30;31.80
10300;DHT22;5195;48.562;9.192;2022-07-23T15:57:01;32.30;31.10
10300;DHT22;5195;48.562;9.192;2022-07-23T15:59:36;32.10;31.80
10300;DHT22;5195;48.562;9.192;2022-07-23T16:02:13;32.40;32.20
10300;DHT22;5195;48.562;9.192;2022-07-23T16:04:48;32.40;32.20
10300;DHT22;5195;48.562;9.192;2022-07-23T16:07:24;32.30;32.30
10300;DHT22;5195;48.562;9.192;2022-07-23T16:10:01;32.00;32.70
10300;DHT22;5195;48.562;9.192;2022-07-23T16:12:36;31.80;33.20
10300;DHT22;5195;48.562;9.192;2022-07-23T16:15:13;32.30;32.20
10300;DHT22;5195;48.562;9.192;2022-07-23T16:17:48;32.30;32.20
10300;DHT22;5195;48.562;9.192;2022-07-23T16:20:25;32.70;31.30
10300;DHT22;5195;48.562;9.192;2022-07-23T16:23:02;32.70;31.30
10300;DHT22;5195;48.562;9.192;2022-07-23T16:25:37;32.50;31.40